sensor_id;sensor_type;location;lat;lon;timestamp;P1;durP1;ratioP1;P2;durP2;ratioP2
40046;SDS011;31510;48.122;11.576;2022-12-29T00:01:13;1.27;;;0.50;;
40046;SDS011;31510;48.122;11.576;2022-12-29T00:03:38;1.45;;;0.38;;
40046;SDS011;31510;48.122;11.576;2022-12-29T00:06:04;1.50;;;1.33;;
40046;SDS011;31510;48.122;11.576;2022-12-29T00:08:29;1.95;;;0.57;;
40046;SDS011;31510;48.122;11.576;2022-12-29T00:11:14;1.27;;;0.60;;
40046;SDS011;31510;48.122;11.576;2022-12-29T00:13:40;1.63;;;0.40;;
40046;SDS011;31510;48.122;11.576;2022-12-29T00:16:25;1.92;;;0.77;;
40046;SDS011;31510;48.122;11.576;2022-12-29T00:18:51;1.85;;;0.63;;
40046;SDS011;31510;48.122;11.576;2022-12-29T00:21:17;1.05;;;0.30;;
40046;SDS011;31510;48.122;11.576;2022-12-29T00:24:03;2.10;;;0.35;;
40046;SDS011;31510;48.122;11.576;2022-12-29T00:26:47;1.83;;;0.50;;
40046;SDS011;31510;48.122;11.576;2022-12-29T00:29:33;0.75;;;0.40;;
40046;SDS011;31510;48.122;11.576;2022-12-29T00:32:17;1.15;;;0.40;;
40046;SDS011;31510;48.122;11.576;2022-12-29T00:35:01;3.25;;;0.70;;
40046;SDS011;31510;48.122;11.576;2022-12-29T00:37:33;3.38;;;1.20;;
40046;SDS011;31510;48.122;11.576;2022-12-29T00:40:17;0.75;;;0.30;;
40046;SDS011;31510;48.122;11.576;2022-12-29T00:43:01;1.40;;;0.50;;
40046;SDS011;31510;48.122;11.576;2022-12-29T00:45:45;2.35;;;0.50;;
40046;SDS011;31510;48.122;11.576;2022-12-29T00:48:10;2.05;;;0.50;;
40046;SDS011;31510;48.122;11.576;2022-12-29T00:50:35;0.90;;;0.40;;
40046;SDS011;31510;48.122;11.576;2022-12-29T00:53:00;1.08;;;0.50;;
40046;SDS011;31510;48.122;11.576;2022-12-29T00:55:26;1.33;;;0.45;;
40046;SDS011;31510;48.122;11.576;2022-12-29T00:57:51;1.30;;;0.60;;
40046;SDS011;31510;48.122;11.576;2022-12-29T01:00:16;1.95;;;0.60;;
40046;SDS011;31510;48.122;11.576;2022-12-29T01:02:41;2.20;;;0.50;;
40046;SDS011;31510;48.122;11.576;2022-12-29T01:05:07;0.77;;;0.40;;
40046;SDS011;31510;48.122;11.576;2022-12-29T01:07:32;2.35;;;0.63;;
40046;SDS011;31510;48.122;11.576;2022-12-29T01:09:58;1.08;;;0.40;;
40046;SDS011;31510;48.122;11.576;2022-12-29T01:12:35;1.20;;;0.35;;
40046;SDS011;31510;48.122;11.576;2022-12-29T01:15:09;1.02;;;0.55;;
40046;SDS011;31510;48.122;11.576;2022-12-29T01:17:35;1.45;;;0.50;;
40046;SDS011;31510;48.122;11.576;2022-12-29T01:20:01;0.68;;;0.30;;
40046;SDS011;31510;48.122;11.576;2022-12-29T01:22:27;0.57;;;0.30;;
40046;SDS011;31510;48.122;11.576;2022-12-29T01:24:52;2.78;;;0.40;;
40046;SDS011;31510;48.122;11.576;2022-12-29T01:27:17;0.93;;;0.40;;
40046;SDS011;31510;48.122;11.576;2022-12-29T01:29:43;1.85;;;0.82;;
40046;SDS011;31510;48.122;11.576;2022-12-29T01:32:08;1.63;;;0.52;;
40046;SDS011;31510;48.122;11.576;2022-12-29T01:34:33;1.30;;;0.50;;
40046;SDS011;31510;48.122;11.576;2022-12-29T01:36:58;1.75;;;0.65;;
40046;SDS011;31510;48.122;11.576;2022-12-29T01:39:24;1.40;;;0.57;;
40046;SDS011;31510;48.122;11.576;2022-12-29T01:41:49;1.80;;;1.00;;
40046;SDS011;31510;48.122;11.576;2022-12-29T01:47:21;1.45;;;0.40;;
40046;SDS011;31510;48.122;11.576;2022-12-29T01:49:48;0.73;;;0.30;;
40046;SDS011;31510;48.122;11.576;2022-12-29T01:52:13;0.88;;;0.20;;
40046;SDS011;31510;48.122;11.576;2022-12-29T01:54:40;1.35;;;0.57;;
40046;SDS011;31510;48.122;11.576;2022-12-29T01:57:11;1.55;;;0.38;;
40046;SDS011;31510;48.122;11.576;2022-12-29T01:59:43;2.90;;;0.40;;
40046;SDS011;31510;48.122;11.576;2022-12-29T02:02:14;1.05;;;0.25;;
40046;SDS011;31510;48.122;11.576;2022-12-29T02:04:40;1.33;;;0.40;;
40046;SDS011;31510;48.122;11.576;2022-12-29T02:07:10;1.88;;;1.08;;
40046;SDS011;31510;48.122;11.576;2022-12-29T02:09:48;1.73;;;0.50;;
40046;SDS011;31510;48.122;11.576;2022-12-29T02:12:15;1.60;;;0.68;;
40046;SDS011;31510;48.122;11.576;2022-12-29T02:14:42;1.48;;;0.68;;
40046;SDS011;31510;48.122;11.576;2022-12-29T02:17:12;1.70;;;0.30;;
40046;SDS011;31510;48.122;11.576;2022-12-29T02:22:26;1.60;;;0.40;;
40046;SDS011;31510;48.122;11.576;2022-12-29T02:25:06;0.95;;;0.22;;
40046;SDS011;31510;48.122;11.576;2022-12-29T02:27:54;0.90;;;0.75;;
40046;SDS011;31510;48.122;11.576;2022-12-29T02:33:34;0.73;;;0.30;;
40046;SDS011;31510;48.122;11.576;2022-12-29T02:36:07;1.75;;;0.65;;
40046;SDS011;31510;48.122;11.576;2022-12-29T02:38:51;0.55;;;0.20;;
40046;SDS011;31510;48.122;11.576;2022-12-29T02:41:33;0.65;;;0.20;;
40046;SDS011;31510;48.122;11.576;2022-12-29T02:44:20;0.73;;;0.20;;
40046;SDS011;31510;48.122;11.576;2022-12-29T02:47:14;1.23;;;0.20;;
40046;SDS011;31510;48.122;11.576;2022-12-29T02:52:32;0.90;;;0.25;;
40046;SDS011;31510;48.122;11.576;2022-12-29T02:55:02;0.45;;;0.17;;
40046;SDS011;31510;48.122;11.576;2022-12-29T02:57:29;1.08;;;0.40;;
40046;SDS011;31510;48.122;11.576;2022-12-29T03:00:07;0.93;;;0.20;;
40046;SDS011;31510;48.122;11.576;2022-12-29T03:08:06;0.70;;;0.20;;
40046;SDS011;31510;48.122;11.576;2022-12-29T03:16:31;0.63;;;0.20;;
40046;SDS011;31510;48.122;11.576;2022-12-29T03:21:52;1.05;;;0.28;;
40046;SDS011;31510;48.122;11.576;2022-12-29T03:24:42;1.38;;;0.22;;
40046;SDS011;31510;48.122;11.576;2022-12-29T03:27:12;1.20;;;0.20;;
40046;SDS011;31510;48.122;11.576;2022-12-29T03:32:10;0.28;;;0.10;;
40046;SDS011;31510;48.122;11.576;2022-12-29T03:34:37;0.45;;;0.10;;
40046;SDS011;31510;48.122;11.576;2022-12-29T03:37:05;0.28;;;0.13;;
40046;SDS011;31510;48.122;11.576;2022-12-29T03:39:40;0.20;;;0.10;;
40046;SDS011;31510;48.122;11.576;2022-12-29T03:42:08;0.47;;;0.20;;
40046;SDS011;31510;48.122;11.576;2022-12-29T03:44:38;0.60;;;0.20;;
40046;SDS011;31510;48.122;11.576;2022-12-29T03:47:06;1.60;;;1.50;;
40046;SDS011;31510;48.122;11.576;2022-12-29T03:49:32;0.68;;;0.20;;
40046;SDS011;31510;48.122;11.576;2022-12-29T03:51:57;0.93;;;0.20;;
40046;SDS011;31510;48.122;11.576;2022-12-29T03:54:23;1.10;;;0.10;;
40046;SDS011;31510;48.122;11.576;2022-12-29T03:56:49;0.88;;;0.10;;
40046;SDS011;31510;48.122;11.576;2022-12-29T03:59:14;0.68;;;0.10;;
40046;SDS011;31510;48.122;11.576;2022-12-29T04:01:42;0.50;;;0.15;;
40046;SDS011;31510;48.122;11.576;2022-12-29T04:04:07;0.60;;;0.20;;
40046;SDS011;31510;48.122;11.576;2022-12-29T04:06:32;0.68;;;0.30;;
40046;SDS011;31510;48.122;11.576;2022-12-29T04:08:58;0.55;;;0.20;;
40046;SDS011;31510;48.122;11.576;2022-12-29T04:11:23;1.80;;;0.50;;
40046;SDS011;31510;48.122;11.576;2022-12-29T04:13:48;1.63;;;0.40;;
40046;SDS011;31510;48.122;11.576;2022-12-29T04:16:14;0.82;;;0.20;;
40046;SDS011;31510;48.122;11.576;2022-12-29T04:18:39;0.45;;;0.10;;
40046;SDS011;31510;48.122;11.576;2022-12-29T04:21:05;1.42;;;0.20;;
40046;SDS011;31510;48.122;11.576;2022-12-29T04:23:32;0.90;;;0.20;;
40046;SDS011;31510;48.122;11.576;2022-12-29T04:25:58;0.80;;;0.20;;
40046;SDS011;31510;48.122;11.576;2022-12-29T04:28:24;0.70;;;0.20;;
40046;SDS011;31510;48.122;11.576;2022-12-29T04:30:49;0.60;;;0.15;;
40046;SDS011;31510;48.122;11.576;2022-12-29T04:33:15;2.40;;;0.30;;
40046;SDS011;31510;48.122;11.576;2022-12-29T04:35:41;0.65;;;0.10;;
40046;SDS011;31510;48.122;11.576;2022-12-29T04:38:06;1.38;;;0.28;;
40046;SDS011;31510;48.122;11.576;2022-12-29T04:40:32;0.50;;;0.13;;
40046;SDS011;31510;48.122;11.576;2022-12-29T04:42:57;1.35;;;0.30;;
40046;SDS011;31510;48.122;11.576;2022-12-29T04:45:22;0.65;;;0.30;;
40046;SDS011;31510;48.122;11.576;2022-12-29T04:47:48;0.40;;;0.10;;
40046;SDS011;31510;48.122;11.576;2022-12-29T04:50:13;0.60;;;0.20;;
40046;SDS011;31510;48.122;11.576;2022-12-29T04:52:38;0.82;;;0.25;;
40046;SDS011;31510;48.122;11.576;2022-12-29T04:55:04;0.50;;;0.10;;
40046;SDS011;31510;48.122;11.576;2022-12-29T04:57:30;0.98;;;0.20;;
40046;SDS011;31510;48.122;11.576;2022-12-29T04:59:55;1.40;;;0.47;;
40046;SDS011;31510;48.122;11.576;2022-12-29T05:02:20;1.80;;;0.20;;
40046;SDS011;31510;48.122;11.576;2022-12-29T05:04:46;0.90;;;0.20;;
40046;SDS011;31510;48.122;11.576;2022-12-29T05:07:11;1.05;;;0.20;;
40046;SDS011;31510;48.122;11.576;2022-12-29T05:09:36;1.10;;;0.30;;
40046;SDS011;31510;48.122;11.576;2022-12-29T05:12:02;0.77;;;0.38;;
40046;SDS011;31510;48.122;11.576;2022-12-29T05:14:27;0.88;;;0.20;;
40046;SDS011;31510;48.122;11.576;2022-12-29T05:16:52;0.82;;;0.30;;
40046;SDS011;31510;48.122;11.576;2022-12-29T05:19:18;1.27;;;0.30;;
40046;SDS011;31510;48.122;11.576;2022-12-29T05:21:43;1.98;;;0.22;;
40046;SDS011;31510;48.122;11.576;2022-12-29T05:24:08;1.77;;;0.20;;
40046;SDS011;31510;48.122;11.576;2022-12-29T05:26:34;1.15;;;0.28;;
40046;SDS011;31510;48.122;11.576;2022-12-29T05:29:06;0.60;;;0.20;;
40046;SDS011;31510;48.122;11.576;2022-12-29T05:31:32;0.88;;;0.30;;
40046;SDS011;31510;48.122;11.576;2022-12-29T05:33:57;1.80;;;0.47;;
40046;SDS011;31510;48.122;11.576;2022-12-29T05:36:22;1.02;;;0.25;;
40046;SDS011;31510;48.122;11.576;2022-12-29T05:38:48;0.90;;;0.40;;
40046;SDS011;31510;48.122;11.576;2022-12-29T05:41:13;2.05;;;0.50;;
40046;SDS011;31510;48.122;11.576;2022-12-29T05:43:38;4.63;;;0.63;;
40046;SDS011;31510;48.122;11.576;2022-12-29T05:46:04;0.90;;;0.30;;
40046;SDS011;31510;48.122;11.576;2022-12-29T05:48:29;1.20;;;0.40;;
40046;SDS011;31510;48.122;11.576;2022-12-29T05:50:54;0.98;;;0.45;;
40046;SDS011;31510;48.122;11.576;2022-12-29T05:53:20;0.57;;;0.13;;
40046;SDS011;31510;48.122;11.576;2022-12-29T05:55:48;0.30;;;0.20;;
40046;SDS011;31510;48.122;11.576;2022-12-29T05:58:15;0.90;;;0.30;;
40046;SDS011;31510;48.122;11.576;2022-12-29T06:00:41;1.85;;;0.45;;
40046;SDS011;31510;48.122;11.576;2022-12-29T06:03:07;1.23;;;0.70;;
40046;SDS011;31510;48.122;11.576;2022-12-29T06:05:32;1.25;;;0.40;;
40046;SDS011;31510;48.122;11.576;2022-12-29T06:07:57;0.40;;;0.15;;
40046;SDS011;31510;48.122;11.576;2022-12-29T06:10:22;0.93;;;0.20;;
40046;SDS011;31510;48.122;11.576;2022-12-29T06:12:48;0.85;;;0.32;;
40046;SDS011;31510;48.122;11.576;2022-12-29T06:15:13;2.03;;;0.40;;
40046;SDS011;31510;48.122;11.576;2022-12-29T06:17:39;0.73;;;0.20;;
40046;SDS011;31510;48.122;11.576;2022-12-29T06:20:05;2.08;;;0.50;;
40046;SDS011;31510;48.122;11.576;2022-12-29T06:22:31;1.60;;;0.30;;
40046;SDS011;31510;48.122;11.576;2022-12-29T06:24:56;0.70;;;0.40;;
40046;SDS011;31510;48.122;11.576;2022-12-29T06:27:22;1.38;;;0.50;;
40046;SDS011;31510;48.122;11.576;2022-12-29T06:29:47;1.05;;;0.30;;
40046;SDS011;31510;48.122;11.576;2022-12-29T06:32:12;0.93;;;0.40;;
40046;SDS011;31510;48.122;11.576;2022-12-29T06:34:38;0.88;;;0.40;;
40046;SDS011;31510;48.122;11.576;2022-12-29T06:37:03;0.77;;;0.30;;
40046;SDS011;31510;48.122;11.576;2022-12-29T06:39:28;1.35;;;0.60;;
40046;SDS011;31510;48.122;11.576;2022-12-29T06:41:54;1.27;;;0.50;;
40046;SDS011;31510;48.122;11.576;2022-12-29T06:44:22;2.78;;;0.63;;
40046;SDS011;31510;48.122;11.576;2022-12-29T06:46:48;2.33;;;0.63;;
40046;SDS011;31510;48.122;11.576;2022-12-29T06:49:14;1.10;;;0.55;;
40046;SDS011;31510;48.122;11.576;2022-12-29T06:51:39;1.60;;;0.75;;
40046;SDS011;31510;48.122;11.576;2022-12-29T06:54:05;0.82;;;0.25;;
40046;SDS011;31510;48.122;11.576;2022-12-29T06:56:30;1.23;;;0.55;;
40046;SDS011;31510;48.122;11.576;2022-12-29T06:58:56;1.17;;;0.73;;
40046;SDS011;31510;48.122;11.576;2022-12-29T07:01:21;0.90;;;0.40;;
40046;SDS011;31510;48.122;11.576;2022-12-29T07:03:46;1.52;;;0.52;;
40046;SDS011;31510;48.122;11.576;2022-12-29T07:06:12;2.88;;;0.88;;
40046;SDS011;31510;48.122;11.576;2022-12-29T07:08:47;0.93;;;0.73;;
40046;SDS011;31510;48.122;11.576;2022-12-29T07:11:24;1.00;;;0.40;;
40046;SDS011;31510;48.122;11.576;2022-12-29T07:13:50;2.47;;;0.30;;
40046;SDS011;31510;48.122;11.576;2022-12-29T07:16:15;1.40;;;0.50;;
40046;SDS011;31510;48.122;11.576;2022-12-29T07:18:40;1.40;;;0.50;;
40046;SDS011;31510;48.122;11.576;2022-12-29T07:21:06;1.85;;;0.88;;
40046;SDS011;31510;48.122;11.576;2022-12-29T07:23:32;4.10;;;0.40;;
40046;SDS011;31510;48.122;11.576;2022-12-29T07:26:01;1.35;;;0.60;;
40046;SDS011;31510;48.122;11.576;2022-12-29T07:28:27;3.55;;;0.30;;
40046;SDS011;31510;48.122;11.576;2022-12-29T07:30:52;5.75;;;1.88;;
40046;SDS011;31510;48.122;11.576;2022-12-29T07:33:18;1.38;;;0.43;;
40046;SDS011;31510;48.122;11.576;2022-12-29T07:35:43;1.38;;;0.60;;
40046;SDS011;31510;48.122;11.576;2022-12-29T07:38:08;1.33;;;0.50;;
40046;SDS011;31510;48.122;11.576;2022-12-29T07:40:34;1.70;;;0.90;;
40046;SDS011;31510;48.122;11.576;2022-12-29T07:42:59;0.98;;;0.30;;
40046;SDS011;31510;48.122;11.576;2022-12-29T07:45:24;4.68;;;0.82;;
40046;SDS011;31510;48.122;11.576;2022-12-29T07:47:49;1.95;;;0.50;;
40046;SDS011;31510;48.122;11.576;2022-12-29T07:50:15;2.92;;;0.95;;
40046;SDS011;31510;48.122;11.576;2022-12-29T07:52:40;2.55;;;0.88;;
40046;SDS011;31510;48.122;11.576;2022-12-29T07:55:06;1.85;;;0.98;;
40046;SDS011;31510;48.122;11.576;2022-12-29T07:57:31;1.55;;;0.60;;
40046;SDS011;31510;48.122;11.576;2022-12-29T07:59:57;1.27;;;0.65;;
40046;SDS011;31510;48.122;11.576;2022-12-29T08:02:22;1.13;;;0.40;;
40046;SDS011;31510;48.122;11.576;2022-12-29T08:04:47;1.77;;;0.40;;
40046;SDS011;31510;48.122;11.576;2022-12-29T08:07:12;2.42;;;0.77;;
40046;SDS011;31510;48.122;11.576;2022-12-29T08:09:38;4.32;;;0.82;;
40046;SDS011;31510;48.122;11.576;2022-12-29T08:12:03;1.10;;;0.70;;
40046;SDS011;31510;48.122;11.576;2022-12-29T08:14:28;1.92;;;0.68;;
40046;SDS011;31510;48.122;11.576;2022-12-29T08:16:54;2.15;;;0.70;;
40046;SDS011;31510;48.122;11.576;2022-12-29T08:19:19;4.13;;;0.70;;
40046;SDS011;31510;48.122;11.576;2022-12-29T08:21:44;2.08;;;0.68;;
40046;SDS011;31510;48.122;11.576;2022-12-29T08:24:10;2.45;;;0.60;;
40046;SDS011;31510;48.122;11.576;2022-12-29T08:26:35;2.00;;;0.73;;
40046;SDS011;31510;48.122;11.576;2022-12-29T08:29:00;2.13;;;0.88;;
40046;SDS011;31510;48.122;11.576;2022-12-29T08:31:26;3.90;;;1.50;;
40046;SDS011;31510;48.122;11.576;2022-12-29T08:33:51;2.28;;;0.90;;
40046;SDS011;31510;48.122;11.576;2022-12-29T08:36:16;1.80;;;0.80;;
40046;SDS011;31510;48.122;11.576;2022-12-29T08:38:42;0.90;;;0.40;;
40046;SDS011;31510;48.122;11.576;2022-12-29T08:41:07;1.17;;;0.60;;
40046;SDS011;31510;48.122;11.576;2022-12-29T08:43:33;1.83;;;0.85;;
40046;SDS011;31510;48.122;11.576;2022-12-29T08:45:58;1.42;;;0.47;;
40046;SDS011;31510;48.122;11.576;2022-12-29T08:48:24;1.50;;;0.63;;
40046;SDS011;31510;48.122;11.576;2022-12-29T08:50:50;1.58;;;0.47;;
40046;SDS011;31510;48.122;11.576;2022-12-29T08:53:15;8.95;;;1.75;;
40046;SDS011;31510;48.122;11.576;2022-12-29T08:55:42;4.97;;;0.75;;
40046;SDS011;31510;48.122;11.576;2022-12-29T08:58:10;2.58;;;0.50;;
40046;SDS011;31510;48.122;11.576;2022-12-29T09:00:39;1.13;;;0.40;;
40046;SDS011;31510;48.122;11.576;2022-12-29T09:03:05;1.90;;;0.55;;
40046;SDS011;31510;48.122;11.576;2022-12-29T09:05:30;2.53;;;0.40;;
40046;SDS011;31510;48.122;11.576;2022-12-29T09:07:55;1.85;;;0.80;;
40046;SDS011;31510;48.122;11.576;2022-12-29T09:10:21;1.35;;;0.70;;
40046;SDS011;31510;48.122;11.576;2022-12-29T09:12:46;1.55;;;0.50;;
40046;SDS011;31510;48.122;11.576;2022-12-29T09:15:11;1.38;;;0.57;;
40046;SDS011;31510;48.122;11.576;2022-12-29T09:17:37;2.63;;;0.93;;
40046;SDS011;31510;48.122;11.576;2022-12-29T09:20:07;1.70;;;0.90;;
40046;SDS011;31510;48.122;11.576;2022-12-29T09:22:33;2.20;;;0.60;;
40046;SDS011;31510;48.122;11.576;2022-12-29T09:24:59;0.65;;;0.30;;
40046;SDS011;31510;48.122;11.576;2022-12-29T09:27:24;2.70;;;0.55;;
40046;SDS011;31510;48.122;11.576;2022-12-29T09:29:49;2.22;;;0.60;;
40046;SDS011;31510;48.122;11.576;2022-12-29T09:32:15;1.35;;;0.70;;
40046;SDS011;31510;48.122;11.576;2022-12-29T09:34:40;1.63;;;0.47;;
40046;SDS011;31510;48.122;11.576;2022-12-29T09:37:05;1.65;;;0.70;;
40046;SDS011;31510;48.122;11.576;2022-12-29T09:39:30;2.97;;;0.50;;
40046;SDS011;31510;48.122;11.576;2022-12-29T09:47:12;2.35;;;0.57;;
40046;SDS011;31510;48.122;11.576;2022-12-29T09:49:47;1.90;;;0.70;;
40046;SDS011;31510;48.122;11.576;2022-12-29T09:55:02;2.75;;;0.30;;
40046;SDS011;31510;48.122;11.576;2022-12-29T09:57:38;1.58;;;0.63;;
40046;SDS011;31510;48.122;11.576;2022-12-29T10:02:46;1.13;;;0.70;;
40046;SDS011;31510;48.122;11.576;2022-12-29T10:07:59;2.83;;;0.60;;
40046;SDS011;31510;48.122;11.576;2022-12-29T10:10:34;3.78;;;0.60;;
40046;SDS011;31510;48.122;11.576;2022-12-29T10:13:09;2.08;;;0.45;;
40046;SDS011;31510;48.122;11.576;2022-12-29T10:24:28;1.52;;;0.75;;
40046;SDS011;31510;48.122;11.576;2022-12-29T10:26:55;1.83;;;0.68;;
40046;SDS011;31510;48.122;11.576;2022-12-29T10:29:23;1.10;;;0.50;;
40046;SDS011;31510;48.122;11.576;2022-12-29T10:32:02;2.08;;;0.70;;
40046;SDS011;31510;48.122;11.576;2022-12-29T10:34:34;2.13;;;0.50;;
40046;SDS011;31510;48.122;11.576;2022-12-29T10:37:04;1.73;;;1.10;;
40046;SDS011;31510;48.122;11.576;2022-12-29T10:39:46;1.63;;;0.80;;
40046;SDS011;31510;48.122;11.576;2022-12-29T10:42:28;1.90;;;0.80;;
40046;SDS011;31510;48.122;11.576;2022-12-29T10:45:01;3.40;;;0.70;;
40046;SDS011;31510;48.122;11.576;2022-12-29T10:47:29;1.92;;;0.52;;
40046;SDS011;31510;48.122;11.576;2022-12-29T10:50:01;3.53;;;0.80;;
40046;SDS011;31510;48.122;11.576;2022-12-29T10:52:27;1.88;;;0.52;;
40046;SDS011;31510;48.122;11.576;2022-12-29T10:54:55;2.05;;;0.65;;
40046;SDS011;31510;48.122;11.576;2022-12-29T10:57:38;2.08;;;0.85;;
40046;SDS011;31510;48.122;11.576;2022-12-29T11:00:12;1.67;;;0.80;;
40046;SDS011;31510;48.122;11.576;2022-12-29T11:03:11;2.67;;;0.88;;
40046;SDS011;31510;48.122;11.576;2022-12-29T11:08:16;2.65;;;0.70;;
40046;SDS011;31510;48.122;11.576;2022-12-29T11:10:44;2.45;;;0.50;;
40046;SDS011;31510;48.122;11.576;2022-12-29T11:15:42;0.93;;;0.43;;
40046;SDS011;31510;48.122;11.576;2022-12-29T11:18:18;1.52;;;0.70;;
40046;SDS011;31510;48.122;11.576;2022-12-29T11:20:47;2.40;;;0.60;;
40046;SDS011;31510;48.122;11.576;2022-12-29T11:23:26;1.60;;;0.40;;
40046;SDS011;31510;48.122;11.576;2022-12-29T11:31:44;1.85;;;0.68;;
40046;SDS011;31510;48.122;11.576;2022-12-29T11:34:23;1.13;;;0.63;;
40046;SDS011;31510;48.122;11.576;2022-12-29T11:36:57;2.80;;;0.73;;
40046;SDS011;31510;48.122;11.576;2022-12-29T11:39:27;1.77;;;0.52;;
40046;SDS011;31510;48.122;11.576;2022-12-29T11:41:59;1.63;;;0.60;;
40046;SDS011;31510;48.122;11.576;2022-12-29T11:44:27;3.85;;;0.63;;
40046;SDS011;31510;48.122;11.576;2022-12-29T11:46:59;1.25;;;0.45;;
40046;SDS011;31510;48.122;11.576;2022-12-29T11:49:25;1.67;;;0.60;;
40046;SDS011;31510;48.122;11.576;2022-12-29T11:51:51;2.70;;;0.63;;
40046;SDS011;31510;48.122;11.576;2022-12-29T11:54:24;3.65;;;0.98;;
40046;SDS011;31510;48.122;11.576;2022-12-29T11:56:53;3.00;;;1.80;;
40046;SDS011;31510;48.122;11.576;2022-12-29T12:01:59;1.48;;;0.55;;
40046;SDS011;31510;48.122;11.576;2022-12-29T12:04:28;2.13;;;0.50;;
40046;SDS011;31510;48.122;11.576;2022-12-29T12:07:15;3.50;;;1.30;;
40046;SDS011;31510;48.122;11.576;2022-12-29T12:09:48;1.40;;;0.50;;
40046;SDS011;31510;48.122;11.576;2022-12-29T12:12:24;1.55;;;0.47;;
40046;SDS011;31510;48.122;11.576;2022-12-29T12:15:15;0.80;;;0.40;;
40046;SDS011;31510;48.122;11.576;2022-12-29T12:20:58;1.35;;;0.47;;
40046;SDS011;31510;48.122;11.576;2022-12-29T12:29:50;1.65;;;0.50;;
40046;SDS011;31510;48.122;11.576;2022-12-29T12:32:25;2.75;;;1.00;;
40046;SDS011;31510;48.122;11.576;2022-12-29T12:35:03;1.92;;;0.40;;
40046;SDS011;31510;48.122;11.576;2022-12-29T12:37:33;1.50;;;0.60;;
40046;SDS011;31510;48.122;11.576;2022-12-29T12:42:55;3.05;;;0.70;;
40046;SDS011;31510;48.122;11.576;2022-12-29T12:59:40;1.55;;;0.80;;
40046;SDS011;31510;48.122;11.576;2022-12-29T13:04:52;2.77;;;0.70;;
40046;SDS011;31510;48.122;11.576;2022-12-29T13:10:56;2.60;;;0.60;;
40046;SDS011;31510;48.122;11.576;2022-12-29T13:21:58;2.10;;;0.68;;
40046;SDS011;31510;48.122;11.576;2022-12-29T13:27:51;3.33;;;0.80;;
40046;SDS011;31510;48.122;11.576;2022-12-29T13:30:19;1.35;;;0.70;;
40046;SDS011;31510;48.122;11.576;2022-12-29T13:40:44;0.90;;;0.50;;
40046;SDS011;31510;48.122;11.576;2022-12-29T13:45:40;3.45;;;1.35;;
40046;SDS011;31510;48.122;11.576;2022-12-29T13:50:51;1.77;;;1.00;;
40046;SDS011;31510;48.122;11.576;2022-12-29T13:53:24;1.45;;;0.80;;
40046;SDS011;31510;48.122;11.576;2022-12-29T13:58:50;1.63;;;0.70;;
40046;SDS011;31510;48.122;11.576;2022-12-29T14:04:02;5.35;;;0.73;;
40046;SDS011;31510;48.122;11.576;2022-12-29T14:06:34;3.15;;;0.70;;
40046;SDS011;31510;48.122;11.576;2022-12-29T14:09:06;2.97;;;0.60;;
40046;SDS011;31510;48.122;11.576;2022-12-29T14:11:51;2.78;;;1.10;;
40046;SDS011;31510;48.122;11.576;2022-12-29T14:14:24;2.75;;;1.02;;
40046;SDS011;31510;48.122;11.576;2022-12-29T14:16:52;2.55;;;1.20;;
40046;SDS011;31510;48.122;11.576;2022-12-29T14:19:31;4.18;;;1.40;;
40046;SDS011;31510;48.122;11.576;2022-12-29T14:22:03;2.83;;;0.90;;
40046;SDS011;31510;48.122;11.576;2022-12-29T14:26:57;2.10;;;1.52;;
40046;SDS011;31510;48.122;11.576;2022-12-29T14:31:49;2.57;;;1.17;;
40046;SDS011;31510;48.122;11.576;2022-12-29T14:37:03;2.92;;;0.90;;
40046;SDS011;31510;48.122;11.576;2022-12-29T14:39:38;2.38;;;0.80;;
40046;SDS011;31510;48.122;11.576;2022-12-29T14:44:34;2.53;;;1.00;;
40046;SDS011;31510;48.122;11.576;2022-12-29T14:47:51;2.50;;;1.10;;
40046;SDS011;31510;48.122;11.576;2022-12-29T14:50:39;1.98;;;1.02;;
40046;SDS011;31510;48.122;11.576;2022-12-29T14:56:10;6.65;;;1.52;;
40046;SDS011;31510;48.122;11.576;2022-12-29T14:58:47;2.83;;;1.45;;
40046;SDS011;31510;48.122;11.576;2022-12-29T15:01:15;2.63;;;0.95;;
40046;SDS011;31510;48.122;11.576;2022-12-29T15:03:57;2.50;;;1.50;;
40046;SDS011;31510;48.122;11.576;2022-12-29T15:06:24;3.13;;;1.20;;
40046;SDS011;31510;48.122;11.576;2022-12-29T15:08:54;4.13;;;2.03;;
40046;SDS011;31510;48.122;11.576;2022-12-29T15:11:41;4.78;;;1.75;;
40046;SDS011;31510;48.122;11.576;2022-12-29T15:14:29;3.85;;;2.47;;
40046;SDS011;31510;48.122;11.576;2022-12-29T15:16:57;4.18;;;1.65;;
40046;SDS011;31510;48.122;11.576;2022-12-29T15:19:23;4.68;;;2.05;;
40046;SDS011;31510;48.122;11.576;2022-12-29T15:21:49;7.60;;;1.98;;
40046;SDS011;31510;48.122;11.576;2022-12-29T15:24:15;7.47;;;2.20;;
40046;SDS011;31510;48.122;11.576;2022-12-29T15:26:42;5.07;;;2.15;;
40046;SDS011;31510;48.122;11.576;2022-12-29T15:32:10;3.58;;;1.70;;
40046;SDS011;31510;48.122;11.576;2022-12-29T15:34:43;3.97;;;1.85;;
40046;SDS011;31510;48.122;11.576;2022-12-29T15:37:09;3.75;;;1.60;;
40046;SDS011;31510;48.122;11.576;2022-12-29T15:39:34;2.28;;;1.33;;
40046;SDS011;31510;48.122;11.576;2022-12-29T15:42:09;3.20;;;1.60;;
40046;SDS011;31510;48.122;11.576;2022-12-29T15:44:55;4.10;;;1.50;;
40046;SDS011;31510;48.122;11.576;2022-12-29T15:47:22;5.90;;;2.20;;
40046;SDS011;31510;48.122;11.576;2022-12-29T15:49:52;6.65;;;1.52;;
40046;SDS011;31510;48.122;11.576;2022-12-29T15:52:19;10.63;;;5.20;;
40046;SDS011;31510;48.122;11.576;2022-12-29T15:54:46;11.15;;;6.03;;
40046;SDS011;31510;48.122;11.576;2022-12-29T15:57:21;12.07;;;5.90;;
40046;SDS011;31510;48.122;11.576;2022-12-29T15:59:48;11.10;;;5.90;;
40046;SDS011;31510;48.122;11.576;2022-12-29T16:02:13;9.13;;;5.05;;
40046;SDS011;31510;48.122;11.576;2022-12-29T16:04:39;12.35;;;5.20;;
40046;SDS011;31510;48.122;11.576;2022-12-29T16:07:06;13.13;;;4.43;;
40046;SDS011;31510;48.122;11.576;2022-12-29T16:09:47;5.68;;;3.85;;
40046;SDS011;31510;48.122;11.576;2022-12-29T16:12:17;6.43;;;2.90;;
40046;SDS011;31510;48.122;11.576;2022-12-29T16:14:47;3.90;;;1.77;;
40046;SDS011;31510;48.122;11.576;2022-12-29T16:17:17;3.20;;;1.65;;
40046;SDS011;31510;48.122;11.576;2022-12-29T16:20:05;5.05;;;1.67;;
40046;SDS011;31510;48.122;11.576;2022-12-29T16:22:58;3.55;;;1.50;;
40046;SDS011;31510;48.122;11.576;2022-12-29T16:25:28;7.47;;;1.38;;
40046;SDS011;31510;48.122;11.576;2022-12-29T16:27:56;4.60;;;1.60;;
40046;SDS011;31510;48.122;11.576;2022-12-29T16:30:32;2.40;;;1.35;;
40046;SDS011;31510;48.122;11.576;2022-12-29T16:33:00;2.38;;;1.40;;
40046;SDS011;31510;48.122;11.576;2022-12-29T16:35:28;5.20;;;2.05;;
40046;SDS011;31510;48.122;11.576;2022-12-29T16:40:57;1.80;;;1.30;;
40046;SDS011;31510;48.122;11.576;2022-12-29T16:50:46;3.65;;;1.48;;
40046;SDS011;31510;48.122;11.576;2022-12-29T16:53:21;3.53;;;1.05;;
40046;SDS011;31510;48.122;11.576;2022-12-29T16:55:50;2.05;;;1.02;;
40046;SDS011;31510;48.122;11.576;2022-12-29T16:58:35;2.47;;;1.02;;
40046;SDS011;31510;48.122;11.576;2022-12-29T17:01:02;3.03;;;1.38;;
40046;SDS011;31510;48.122;11.576;2022-12-29T17:03:32;4.20;;;1.35;;
40046;SDS011;31510;48.122;11.576;2022-12-29T17:05:59;5.05;;;1.30;;
40046;SDS011;31510;48.122;11.576;2022-12-29T17:08:25;3.65;;;1.10;;
40046;SDS011;31510;48.122;11.576;2022-12-29T17:10:54;3.33;;;1.23;;
40046;SDS011;31510;48.122;11.576;2022-12-29T17:13:39;2.72;;;1.63;;
40046;SDS011;31510;48.122;11.576;2022-12-29T17:16:05;1.92;;;1.15;;
40046;SDS011;31510;48.122;11.576;2022-12-29T17:18:32;3.83;;;1.38;;
40046;SDS011;31510;48.122;11.576;2022-12-29T17:20:58;2.95;;;1.20;;